createdAt,value
2022-11-25T00:01:30.554Z,34.72
2022-11-25T00:03:58.828Z,31.38
2022-11-25T00:06:30.962Z,34.03
2022-11-25T00:09:04.164Z,30.17
2022-11-25T00:11:34.063Z,28.60
2022-11-25T00:14:01.512Z,34.17
2022-11-25T00:16:28.932Z,30.40
2022-11-25T00:18:57.459Z,33.25
2022-11-25T00:21:27.143Z,30.40
2022-11-25T00:23:56.872Z,27.42
2022-11-25T00:26:25.528Z,28.27
2022-11-25T00:28:53.727Z,28.38
2022-11-25T00:31:23.452Z,30.48
2022-11-25T00:33:51.575Z,33.38
2022-11-25T00:36:36.386Z,29.08
2022-11-25T00:39:09.463Z,29.65
2022-11-25T00:41:55.599Z,29.20
2022-11-25T00:44:41.661Z,27.45
2022-11-25T00:47:16.640Z,27.08
2022-11-25T00:49:46.433Z,27.45
2022-11-25T00:52:18.287Z,23.98
2022-11-25T00:57:17.170Z,27.52
2022-11-25T00:59:44.558Z,25.60
2022-11-25T01:02:13.438Z,21.75
2022-11-25T01:04:41.275Z,23.00
2022-11-25T01:07:08.904Z,21.73
2022-11-25T01:09:36.481Z,18.77
2022-11-25T01:12:07.977Z,23.23
2022-11-25T01:14:35.645Z,19.53
2022-11-25T01:17:03.887Z,17.35
2022-11-25T01:19:33.621Z,17.27
2022-11-25T01:22:01.045Z,18.70
2022-11-25T01:24:28.515Z,16.70
2022-11-25T01:26:56.169Z,19.70
2022-11-25T01:29:24.219Z,15.88
2022-11-25T01:31:57.370Z,19.73
2022-11-25T01:34:27.035Z,20.75
2022-11-25T01:36:58.145Z,23.63
2022-11-25T01:39:32.048Z,22.02
2022-11-25T01:42:00.843Z,21.17
2022-11-25T01:44:32.841Z,21.52
2022-11-25T01:47:03.889Z,20.50
2022-11-25T01:49:43.235Z,22.17
2022-11-25T01:52:13.688Z,20.10
2022-11-25T01:54:59.856Z,24.42
2022-11-25T01:57:39.777Z,22.90
2022-11-25T02:00:09.796Z,25.38
2022-11-25T02:02:50.799Z,23.23
2022-11-25T02:05:20.954Z,22.02
2022-11-25T02:07:51.528Z,20.88
2022-11-25T02:10:27.028Z,20.55
2022-11-25T02:12:54.990Z,23.65
2022-11-25T02:15:22.902Z,21.52
2022-11-25T02:17:50.334Z,23.98
2022-11-25T02:20:20.915Z,20.25
2022-11-25T02:22:54.438Z,27.30
2022-11-25T02:25:31.321Z,24.30
2022-11-25T02:28:06.783Z,28.70
2022-11-25T02:30:35.483Z,26.60
2022-11-25T02:33:05.953Z,25.00
2022-11-25T02:35:34.753Z,24.75
2022-11-25T02:38:07.609Z,23.10
2022-11-25T02:40:52.848Z,23.95
2022-11-25T02:43:20.771Z,24.55
2022-11-25T02:46:07.201Z,26.13
2022-11-25T02:51:27.662Z,24.25
2022-11-25T02:53:59.138Z,23.45
2022-11-25T02:56:31.655Z,27.85
2022-11-25T02:58:59.437Z,23.10
2022-11-25T03:01:29.900Z,22.02
2022-11-25T03:03:57.977Z,22.17
2022-11-25T03:06:28.702Z,22.92
2022-11-25T03:08:56.771Z,28.38
2022-11-25T03:11:45.262Z,22.73
2022-11-25T03:14:13.250Z,23.73
2022-11-25T03:16:40.816Z,24.52
2022-11-25T03:19:08.667Z,24.05
2022-11-25T03:21:38.969Z,22.75
2022-11-25T03:24:07.074Z,25.17
2022-11-25T03:26:34.551Z,21.98
2022-11-25T03:29:02.103Z,26.77
2022-11-25T03:31:31.060Z,23.73
2022-11-25T03:33:58.559Z,24.52
2022-11-25T03:36:25.952Z,24.98
2022-11-25T03:38:53.334Z,23.85
2022-11-25T03:41:20.749Z,22.15
2022-11-25T03:43:49.100Z,25.40
2022-11-25T03:46:16.609Z,23.50
2022-11-25T03:48:44.410Z,32.20
2022-11-25T03:51:15.278Z,24.65
2022-11-25T03:53:44.069Z,25.00
2022-11-25T03:56:11.494Z,23.98
2022-11-25T03:58:38.844Z,29.27
2022-11-25T04:01:07.071Z,24.63
2022-11-25T04:03:34.700Z,23.42
2022-11-25T04:06:02.199Z,26.00
2022-11-25T04:08:30.903Z,24.58
2022-11-25T04:10:59.432Z,23.83
2022-11-25T04:13:30.445Z,23.20
2022-11-25T04:15:58.266Z,21.95
2022-11-25T04:18:26.571Z,27.23
2022-11-25T04:20:56.670Z,24.35
2022-11-25T04:23:24.372Z,23.35
2022-11-25T04:26:00.082Z,23.65
2022-11-25T04:28:34.423Z,23.90
2022-11-25T04:31:06.767Z,26.02
2022-11-25T04:33:36.170Z,28.13
2022-11-25T04:36:03.974Z,21.40
2022-11-25T04:38:31.641Z,26.42
2022-11-25T04:41:02.081Z,23.55
2022-11-25T04:43:33.245Z,22.65
2022-11-25T04:46:13.871Z,23.58
2022-11-25T04:48:44.725Z,21.48
2022-11-25T04:51:12.153Z,25.60
2022-11-25T04:53:40.282Z,25.45
2022-11-25T04:56:14.292Z,23.05
2022-11-25T04:59:02.595Z,20.90
2022-11-25T05:01:31.027Z,26.50
2022-11-25T05:04:08.564Z,22.92
2022-11-25T05:06:37.540Z,25.50
2022-11-25T05:09:06.126Z,20.50
2022-11-25T05:11:36.371Z,23.58
2022-11-25T05:14:03.942Z,23.95
2022-11-25T05:16:34.271Z,26.38
2022-11-25T05:19:02.420Z,22.45
2022-11-25T05:21:29.869Z,27.63
2022-11-25T05:23:57.255Z,25.85
2022-11-25T05:26:28.394Z,24.15
2022-11-25T05:28:58.797Z,21.63
2022-11-25T05:31:29.696Z,24.50
2022-11-25T05:34:00.860Z,23.33
2022-11-25T05:36:29.149Z,23.05
2022-11-25T05:38:57.610Z,24.60
2022-11-25T05:41:36.140Z,20.65
2022-11-25T05:44:05.331Z,22.20
2022-11-25T05:46:34.179Z,21.77
2022-11-25T05:49:01.656Z,23.88
2022-11-25T05:51:30.882Z,23.52
2022-11-25T05:54:00.279Z,24.30
2022-11-25T05:56:30.783Z,24.80
2022-11-25T05:59:21.210Z,22.23
2022-11-25T06:02:08.876Z,25.55
2022-11-25T06:04:36.723Z,25.58
2022-11-25T06:07:04.463Z,19.77
2022-11-25T06:09:32.093Z,20.27
2022-11-25T06:11:59.624Z,24.92
2022-11-25T06:14:27.044Z,22.58
2022-11-25T06:16:55.282Z,24.15
2022-11-25T06:19:28.290Z,22.00
2022-11-25T06:21:55.615Z,20.02
2022-11-25T06:24:23.162Z,23.88
2022-11-25T06:26:56.279Z,21.00
2022-11-25T06:29:23.777Z,20.27
2022-11-25T06:31:52.332Z,21.42
2022-11-25T06:34:42.649Z,20.50
2022-11-25T06:37:19.541Z,21.42
2022-11-25T06:39:47.568Z,23.00
2022-11-25T06:42:14.860Z,21.77
2022-11-25T06:44:42.206Z,19.77
2022-11-25T06:47:09.727Z,22.27
2022-11-25T06:49:37.056Z,26.10
2022-11-25T06:52:04.739Z,27.45
2022-11-25T06:54:32.148Z,23.23
2022-11-25T06:56:59.812Z,24.63
2022-11-25T06:59:27.206Z,24.55
2022-11-25T07:01:54.651Z,26.92
2022-11-25T07:04:22.020Z,27.80
2022-11-25T07:06:50.578Z,28.52
2022-11-25T07:09:19.624Z,28.88
2022-11-25T07:11:47.026Z,27.23
2022-11-25T07:14:16.846Z,30.98
2022-11-25T07:16:45.772Z,25.27
2022-11-25T07:19:15.478Z,30.42
2022-11-25T07:21:45.541Z,25.25
2022-11-25T07:24:17.978Z,27.52
2022-11-25T07:26:45.658Z,27.95
2022-11-25T07:29:49.979Z,34.45
2022-11-25T07:32:07.296Z,26.77
2022-11-25T07:34:37.872Z,26.77
2022-11-25T07:37:05.201Z,31.45
2022-11-25T07:39:32.710Z,23.30
2022-11-25T07:42:00.074Z,24.98
2022-11-25T07:44:27.388Z,22.17
2022-11-25T07:47:02.069Z,23.33
2022-11-25T07:49:29.544Z,22.67
2022-11-25T07:51:59.847Z,22.88
2022-11-25T07:54:27.365Z,19.17
2022-11-25T07:56:54.766Z,22.08
2022-11-25T07:59:23.363Z,24.05
2022-11-25T08:01:53.116Z,22.13
2022-11-25T08:04:21.784Z,24.83
2022-11-25T08:06:50.946Z,24.05
2022-11-25T08:09:21.511Z,25.35
2022-11-25T08:11:49.861Z,23.70
2022-11-25T08:14:17.667Z,21.17
2022-11-25T08:16:45.209Z,25.00
2022-11-25T08:19:15.586Z,23.27
2022-11-25T08:21:43.121Z,26.25
2022-11-25T08:24:16.349Z,25.60
2022-11-25T08:26:44.284Z,24.33
2022-11-25T08:29:14.449Z,24.67
2022-11-25T08:31:43.046Z,29.52
2022-11-25T08:34:18.748Z,23.95
2022-11-25T08:36:48.856Z,25.88
2022-11-25T08:39:44.406Z,28.10
2022-11-25T08:42:06.217Z,28.77
2022-11-25T08:44:34.261Z,29.52
2022-11-25T08:47:01.691Z,29.70
2022-11-25T08:49:34.793Z,26.00
2022-11-25T08:52:06.401Z,28.70
2022-11-25T08:54:33.797Z,27.90
2022-11-25T08:57:01.150Z,26.90
2022-11-25T08:59:28.468Z,27.77
2022-11-25T09:01:55.889Z,24.88
2022-11-25T09:04:23.459Z,31.95
2022-11-25T09:06:50.877Z,27.33
2022-11-25T09:09:18.221Z,25.08
2022-11-25T09:11:45.758Z,27.20
2022-11-25T09:14:13.990Z,23.88
2022-11-25T09:16:41.501Z,26.63
2022-11-25T09:19:11.840Z,27.00
2022-11-25T09:21:43.357Z,23.50
2022-11-25T09:24:10.737Z,21.58
2022-11-25T09:26:41.033Z,22.25
2022-11-25T09:29:08.836Z,23.25
2022-11-25T09:31:36.519Z,23.45
2022-11-25T09:34:03.999Z,20.25
2022-11-25T09:36:31.389Z,22.33
2022-11-25T09:38:58.867Z,22.20
2022-11-25T09:41:53.842Z,17.52
2022-11-25T09:44:45.932Z,22.48
2022-11-25T09:47:15.994Z,22.08
2022-11-25T09:50:08.199Z,21.60
2022-11-25T09:52:42.164Z,20.77
2022-11-25T09:55:13.868Z,19.05
2022-11-25T09:58:15.520Z,15.32
2022-11-25T10:00:46.602Z,18.93
2022-11-25T10:03:30.183Z,17.40
2022-11-25T10:06:07.698Z,18.27
2022-11-25T10:09:11.434Z,18.38
2022-11-25T10:11:53.742Z,18.70
2022-11-25T10:14:39.133Z,20.15
2022-11-25T10:17:25.139Z,17.15
2022-11-25T10:20:13.880Z,14.98
2022-11-25T10:22:44.262Z,17.23
2022-11-25T10:25:27.775Z,16.42
2022-11-25T10:28:02.081Z,18.67
2022-11-25T10:30:41.773Z,18.10
2022-11-25T10:33:22.913Z,14.20
2022-11-25T10:35:59.556Z,15.85
2022-11-25T10:38:41.454Z,18.17
2022-11-25T10:41:17.275Z,14.13
2022-11-25T10:43:47.810Z,15.55
2022-11-25T10:46:49.586Z,16.40
2022-11-25T10:49:29.941Z,16.77
2022-11-25T10:51:57.982Z,18.90
2022-11-25T10:54:28.222Z,18.05
2022-11-25T10:57:01.617Z,16.40
2022-11-25T10:59:34.601Z,14.48
2022-11-25T11:02:27.226Z,19.75
2022-11-25T11:05:32.896Z,17.30
2022-11-25T11:08:23.357Z,14.80
2022-11-25T11:11:09.140Z,16.33
2022-11-25T11:13:36.536Z,13.77
2022-11-25T11:16:04.120Z,15.05
2022-11-25T11:18:37.725Z,16.58
2022-11-25T11:21:07.718Z,14.48
2022-11-25T11:23:54.125Z,16.33
2022-11-25T11:26:26.566Z,12.85
2022-11-25T11:29:13.884Z,14.52
2022-11-25T11:31:48.645Z,12.25
2022-11-25T11:34:31.374Z,12.15
2022-11-25T11:37:17.891Z,11.75
2022-11-25T11:40:03.130Z,10.18
2022-11-25T11:42:49.500Z,7.45
2022-11-25T11:45:23.290Z,9.10
2022-11-25T11:48:09.101Z,7.22
2022-11-25T11:50:49.359Z,10.95
2022-11-25T11:53:47.727Z,7.15
2022-11-25T11:56:35.970Z,10.27
2022-11-25T11:59:24.944Z,9.68
2022-11-25T12:02:01.548Z,13.43
2022-11-25T12:05:04.912Z,11.40
2022-11-25T12:07:36.459Z,8.07
2022-11-25T12:10:16.642Z,9.20
2022-11-25T12:13:03.237Z,8.52
2022-11-25T12:15:41.356Z,9.27
2022-11-25T12:18:20.767Z,8.88
2022-11-25T12:20:57.641Z,8.45
2022-11-25T12:23:51.193Z,7.90
2022-11-25T12:26:29.236Z,9.00
2022-11-25T12:29:05.192Z,9.48
2022-11-25T12:31:39.847Z,8.43
2022-11-25T12:34:27.666Z,7.50
2022-11-25T12:37:14.677Z,7.20
2022-11-25T12:40:00.428Z,7.85
2022-11-25T12:42:30.834Z,7.93
2022-11-25T12:45:16.180Z,10.88
2022-11-25T12:47:45.137Z,10.73
2022-11-25T12:50:53.044Z,6.88
2022-11-25T12:54:12.590Z,7.70
2022-11-25T12:57:13.159Z,7.43
2022-11-25T13:00:39.743Z,9.25
2022-11-25T13:03:15.312Z,90.13
2022-11-25T13:06:02.770Z,11.23
2022-11-25T13:09:23.980Z,10.13
2022-11-25T13:12:05.206Z,8.43
2022-11-25T13:14:33.150Z,9.10
2022-11-25T13:17:01.390Z,6.85
2022-11-25T13:19:29.309Z,8.55
2022-11-25T13:22:06.523Z,9.57
2022-11-25T13:24:44.301Z,9.35
2022-11-25T13:27:32.792Z,8.80
2022-11-25T13:30:01.492Z,8.70
2022-11-25T13:32:37.060Z,7.80
2022-11-25T13:35:22.383Z,11.55
2022-11-25T13:37:50.985Z,11.77
2022-11-25T13:40:21.991Z,9.77
2022-11-25T13:42:50.649Z,9.13
2022-11-25T13:45:30.063Z,8.68
2022-11-25T13:48:06.951Z,9.57
2022-11-25T13:50:55.522Z,8.60
2022-11-25T13:53:33.301Z,7.25
2022-11-25T13:56:24.477Z,11.00
2022-11-25T13:59:10.247Z,7.68
2022-11-25T14:01:40.695Z,9.40
2022-11-25T14:04:10.537Z,9.20
2022-11-25T14:07:02.216Z,9.05
2022-11-25T14:09:45.367Z,12.20
2022-11-25T14:12:21.641Z,11.13
2022-11-25T14:14:56.216Z,12.02
2022-11-25T14:17:30.881Z,10.05
2022-11-25T14:20:35.402Z,9.63
2022-11-25T14:23:22.201Z,11.05
2022-11-25T14:25:56.110Z,12.48
2022-11-25T14:29:08.798Z,11.45
2022-11-25T14:34:22.240Z,11.57
2022-11-25T14:36:54.626Z,13.02
2022-11-25T14:39:48.176Z,12.52
2022-11-25T14:42:19.509Z,13.00
2022-11-25T14:44:52.626Z,17.48
2022-11-25T14:47:27.989Z,13.50
2022-11-25T14:52:50.119Z,15.13
2022-11-25T14:55:28.640Z,15.35
2022-11-25T14:57:56.293Z,14.20
2022-11-25T15:00:24.248Z,14.93
2022-11-25T15:02:57.622Z,15.95
2022-11-25T15:05:27.287Z,16.73
2022-11-25T15:08:08.284Z,17.77
2022-11-25T15:10:43.945Z,18.77
2022-11-25T15:13:34.369Z,17.08
2022-11-25T15:16:07.067Z,16.95
2022-11-25T15:18:35.680Z,23.33
2022-11-25T15:21:04.335Z,18.08
2022-11-25T15:23:37.114Z,17.20
2022-11-25T15:26:15.177Z,15.18
2022-11-25T15:28:42.698Z,17.73
2022-11-25T15:31:16.508Z,18.30
2022-11-25T15:33:44.779Z,18.40
2022-11-25T15:36:12.237Z,17.65
2022-11-25T15:38:46.632Z,19.10
2022-11-25T15:41:35.981Z,18.63
2022-11-25T15:44:05.571Z,17.77
2022-11-25T15:46:37.970Z,15.77
2022-11-25T15:49:08.047Z,18.85
2022-11-25T15:51:41.688Z,20.67
2022-11-25T15:54:51.876Z,19.05
2022-11-25T15:57:23.170Z,21.70
2022-11-25T15:59:56.090Z,19.88
2022-11-25T16:02:41.560Z,23.83
2022-11-25T16:05:15.163Z,18.75
2022-11-25T16:07:52.016Z,18.98
2022-11-25T16:10:20.844Z,26.55
2022-11-25T16:13:23.404Z,21.95
2022-11-25T16:16:08.180Z,20.35
2022-11-25T16:18:40.659Z,22.80
2022-11-25T16:21:21.963Z,19.15
2022-11-25T16:23:58.061Z,23.73
2022-11-25T16:26:30.049Z,20.23
2022-11-25T16:29:02.290Z,24.67
2022-11-25T16:31:29.676Z,20.67
2022-11-25T16:34:09.691Z,24.17
2022-11-25T16:36:37.069Z,22.83
2022-11-25T16:39:04.480Z,23.33
2022-11-25T16:41:31.909Z,25.10
2022-11-25T16:44:00.864Z,23.63
2022-11-25T16:46:30.272Z,28.80
2022-11-25T16:48:57.713Z,23.67
2022-11-25T16:51:25.858Z,24.13
2022-11-25T16:53:53.304Z,30.60
2022-11-25T16:56:29.697Z,23.83
2022-11-25T16:59:00.774Z,33.92
2022-11-25T17:01:30.052Z,25.17
2022-11-25T17:03:57.661Z,24.50
2022-11-25T17:06:28.402Z,25.80
2022-11-25T17:08:55.821Z,23.10
2022-11-25T17:14:00.788Z,22.80
2022-11-25T17:14:35.764Z,24.20
2022-11-25T17:17:04.511Z,24.13
2022-11-25T17:19:32.013Z,26.73
2022-11-25T17:21:59.461Z,25.52
2022-11-25T17:24:27.328Z,23.70
2022-11-25T17:26:57.116Z,23.98
2022-11-25T17:29:39.854Z,23.77
2022-11-25T17:32:12.613Z,25.75
2022-11-25T17:34:40.300Z,45.22
2022-11-25T17:37:14.256Z,30.13
2022-11-25T17:39:42.252Z,27.98
2022-11-25T17:42:15.819Z,24.15
2022-11-25T17:44:49.879Z,23.15
2022-11-25T17:47:20.392Z,24.73
2022-11-25T17:49:49.580Z,22.35
2022-11-25T17:52:17.067Z,24.42
2022-11-25T17:54:44.484Z,25.98
2022-11-25T17:57:15.600Z,26.55
2022-11-25T17:59:46.328Z,28.52
2022-11-25T18:02:18.965Z,25.40
2022-11-25T18:04:46.562Z,25.27
2022-11-25T18:07:16.961Z,22.65
2022-11-25T18:09:45.329Z,24.75
2022-11-25T18:12:26.727Z,23.92
2022-11-25T18:14:55.840Z,26.35
2022-11-25T18:17:23.195Z,21.77
2022-11-25T18:19:55.069Z,22.70
2022-11-25T18:22:24.165Z,21.98
2022-11-25T18:24:52.627Z,22.35
2022-11-25T18:27:27.035Z,26.02
2022-11-25T18:29:55.795Z,21.90
2022-11-25T18:32:25.486Z,25.75
2022-11-25T18:34:53.102Z,24.63
2022-11-25T18:37:20.505Z,27.02
2022-11-25T18:39:47.882Z,23.60
2022-11-25T18:42:27.455Z,27.23
2022-11-25T18:44:56.112Z,30.40
2022-11-25T18:47:23.651Z,26.17
2022-11-25T18:49:55.893Z,27.40
2022-11-25T18:52:24.924Z,28.80
2022-11-25T18:54:52.463Z,32.05
2022-11-25T18:57:20.049Z,33.58
2022-11-25T18:59:55.964Z,34.78
2022-11-25T19:02:35.330Z,37.33
2022-11-25T19:05:06.505Z,30.92
2022-11-25T19:07:34.003Z,28.48
2022-11-25T19:10:01.390Z,29.55
2022-11-25T19:12:28.761Z,28.92
2022-11-25T19:14:57.310Z,31.52
2022-11-25T19:17:26.109Z,32.17
2022-11-25T19:19:53.488Z,32.75
2022-11-25T19:22:22.744Z,29.33
2022-11-25T19:24:52.330Z,28.02
2022-11-25T19:27:23.485Z,27.40
2022-11-25T19:29:52.707Z,30.73
2022-11-25T19:32:26.348Z,28.88
2022-11-25T19:35:00.904Z,30.08
2022-11-25T19:37:30.234Z,29.13
2022-11-25T19:39:57.826Z,29.05
2022-11-25T19:42:25.787Z,34.72
2022-11-25T19:44:53.106Z,27.17
2022-11-25T19:47:23.377Z,28.17
2022-11-25T19:49:57.187Z,32.47
2022-11-25T19:52:37.870Z,30.95
2022-11-25T19:55:17.613Z,35.85
2022-11-25T19:57:46.327Z,33.28
2022-11-25T20:00:15.663Z,30.70
2022-11-25T20:02:43.912Z,31.05
2022-11-25T20:05:17.804Z,30.70
2022-11-25T20:07:45.410Z,31.20
2022-11-25T20:10:19.989Z,29.50
2022-11-25T20:12:47.997Z,31.17
2022-11-25T20:15:15.464Z,31.13
2022-11-25T20:17:46.929Z,32.25
2022-11-25T20:20:44.077Z,44.53
2022-11-25T20:23:44.722Z,34.80
2022-11-25T20:26:26.868Z,28.02
2022-11-25T20:31:22.191Z,31.95
2022-11-25T20:33:50.310Z,34.17
2022-11-25T20:36:26.285Z,32.58
2022-11-25T20:38:54.800Z,28.30
2022-11-25T20:41:27.695Z,32.35
2022-11-25T20:43:56.451Z,34.80
2022-11-25T20:46:29.997Z,36.28
2022-11-25T20:49:00.415Z,30.08
2022-11-25T20:51:28.478Z,34.50
2022-11-25T20:53:58.031Z,33.70
2022-11-25T20:56:27.377Z,29.75
2022-11-25T20:58:57.004Z,35.42
2022-11-25T21:01:25.159Z,33.72
2022-11-25T21:03:52.841Z,34.97
2022-11-25T21:06:29.432Z,30.42
2022-11-25T21:08:59.729Z,32.05
2022-11-25T21:11:28.119Z,33.72
2022-11-25T21:13:55.424Z,31.63
2022-11-25T21:16:23.008Z,34.97
2022-11-25T21:18:50.312Z,31.70
2022-11-25T21:21:25.780Z,32.55
2022-11-25T21:23:53.133Z,34.13
2022-11-25T21:26:23.550Z,33.75
2022-11-25T21:28:53.021Z,33.88
2022-11-25T21:31:25.202Z,33.10
2022-11-25T21:33:57.895Z,29.60
2022-11-25T21:36:30.835Z,32.00
2022-11-25T21:39:10.077Z,30.80
2022-11-25T21:41:40.887Z,29.98
2022-11-25T21:44:10.371Z,33.25
2022-11-25T21:46:37.791Z,34.03
2022-11-25T21:49:10.963Z,31.75
2022-11-25T21:51:38.253Z,32.17
2022-11-25T21:54:05.640Z,31.73
2022-11-25T21:56:34.576Z,31.00
2022-11-25T21:59:06.585Z,35.03
2022-11-25T22:04:01.366Z,34.50
2022-11-25T22:06:30.552Z,31.58
2022-11-25T22:08:58.242Z,34.78
2022-11-25T22:11:35.445Z,29.50
2022-11-25T22:14:07.842Z,32.13
2022-11-25T22:16:36.723Z,36.72
2022-11-25T22:19:04.224Z,30.80
2022-11-25T22:21:31.708Z,29.40
2022-11-25T22:23:59.020Z,28.02
2022-11-25T22:26:34.200Z,28.25
2022-11-25T22:29:02.339Z,27.17
2022-11-25T22:31:29.920Z,27.70
2022-11-25T22:33:57.306Z,27.35
2022-11-25T22:36:35.962Z,33.10
2022-11-25T22:39:20.549Z,25.95
2022-11-25T22:41:54.349Z,23.33
2022-11-25T22:44:28.692Z,24.92
2022-11-25T22:46:56.103Z,23.40
2022-11-25T22:49:26.419Z,25.70
2022-11-25T22:51:54.545Z,27.42
2022-11-25T22:54:25.157Z,24.35
2022-11-25T22:56:52.633Z,22.52
2022-11-25T22:59:19.997Z,21.48
2022-11-25T23:01:47.658Z,26.48
2022-11-25T23:04:20.235Z,24.50
2022-11-25T23:06:48.099Z,24.23
2022-11-25T23:09:19.759Z,24.65
2022-11-25T23:11:47.833Z,24.30
2022-11-25T23:14:15.474Z,26.25
2022-11-25T23:16:43.182Z,24.88
2022-11-25T23:19:16.842Z,29.52
2022-11-25T23:21:45.715Z,30.17
2022-11-25T23:24:16.493Z,26.25
2022-11-25T23:26:44.166Z,27.48
2022-11-25T23:29:11.575Z,27.23
2022-11-25T23:31:39.838Z,25.98
2022-11-25T23:34:08.139Z,28.70
2022-11-25T23:36:46.106Z,31.05
2022-11-25T23:39:21.449Z,27.15
2022-11-25T23:41:49.641Z,24.38
2022-11-25T23:44:24.621Z,24.30
2022-11-25T23:46:54.665Z,23.10
2022-11-25T23:49:28.790Z,26.98
2022-11-25T23:52:02.135Z,23.48
2022-11-25T23:54:40.579Z,22.48
2022-11-25T23:57:30.582Z,22.10
2022-11-25T23:59:58.307Z,21.77
